Jump to content


SKYWEST AIRLINES FLIGHT OO4873 FLOWN ON 09-21-2017 BY CAPTAIN DEREK ROGY

Pilot StatsCaptain Derek Rogy (LDP86) • 1,488.7 total hours • 801 total flights [View Logbook]
FLIGHT DETAILS
StatusReceived and approved on 2017-09-21 at 11:09:56
Origin AirportSeattle-Tacoma Intl (KSEA) • Seattle, Washington, United States (433 feet MSL)
Filed Flight PlanKSEA HAROB Q5 HISKU KEUG
Destination AirportMahlon Sweet (KEUG) • Eugene, Oregon, United States (369 feet MSL)
Alternate AirportNone Filed
AirlineSkywest Airlines
AircraftBombardier CRJ-700 (CR7 / CRJ-700)
FS Aircraft UsedCRJ700ER Delta Airways N367CA
Cruising AltitudeFL270
Distance Flown203 nautical miles
Passengers Onboard58 passengers (82.86% full)
DEPARTURE DETAILS
Time Out09:29:11
Taxi Data64,997 lbs total with 8,068 lbs of fuel onboard
Takeoff Data09:45:26 (16 minutes after leaving gate/ramp) • 64,599 lbs total • 7° pitch at 143 knots
Departure METARKSEA 211427Z 18004KT 10SM SCT009 BKN015 OVC050 10/09 A2990 RMK AO2 T01000094 $
ARRIVAL DETAILS
Landing Data10:25:18 • 61,939 lbs total • 2° pitch doing 120 knots at a rate of -151.48 feet/minute with 4,949 lbs of fuel onboard
Time In10:27:53 (3 minutes after landing)
Ramp Weight61,878 lbs total
Total Fuel Used3,119 lbs
Total Block Time00:58:42 (1 hour) while 19 minutes were spent on the ground
Arrival METARKEUG 211502Z 17005KT 10SM BKN030 BKN038 OVC070 08/08 A2996 RMK AO2 T00830078
MISCELLANEOUS DETAILS
LiveDISPATCH Version4.8.3.1
FS Version
FSUIPC Version4.95
OS VersionWindows 7 32-bit
Screen Resolution1920 x 1200
Pilot's CommentsNo Comments Reported
FLIGHT MAP